createdAt,value
2023-02-02T00:04:21.400Z,10.00
2023-02-02T00:14:27.635Z,7.40
2023-02-02T00:24:33.571Z,9.10
2023-02-02T00:34:39.393Z,6.10
2023-02-02T00:45:03.056Z,4.10
2023-02-02T00:55:11.247Z,5.10
2023-02-02T01:05:17.417Z,10.50
2023-02-02T01:15:23.604Z,5.60
2023-02-02T01:25:30.620Z,7.90
2023-02-02T01:45:40.923Z,8.10
2023-02-02T01:55:48.500Z,4.50
2023-02-02T02:05:58.155Z,7.80
2023-02-02T02:16:27.849Z,8.10
2023-02-02T02:27:04.090Z,9.90
2023-02-02T02:37:18.397Z,8.30
2023-02-02T02:47:25.266Z,9.60
2023-02-02T03:07:56.874Z,9.80
2023-02-02T03:18:02.857Z,7.50
2023-02-02T03:28:10.014Z,6.40
2023-02-02T03:38:15.875Z,6.80
2023-02-02T03:48:21.669Z,12.00
2023-02-02T03:58:27.756Z,10.70
2023-02-02T04:08:35.060Z,8.30
2023-02-02T04:18:41.089Z,5.40
2023-02-02T04:28:47.144Z,5.60
2023-02-02T04:38:53.935Z,4.80
2023-02-02T04:48:59.736Z,7.30
2023-02-02T04:59:05.678Z,5.30
2023-02-02T05:09:11.420Z,8.50
2023-02-02T05:19:17.210Z,8.90
2023-02-02T05:29:22.973Z,8.20
2023-02-02T05:39:28.855Z,4.70
2023-02-02T05:49:34.731Z,6.90
2023-02-02T05:59:40.567Z,7.50
2023-02-02T06:09:46.405Z,4.60
2023-02-02T06:19:52.054Z,6.60
2023-02-02T06:29:57.946Z,7.20
2023-02-02T06:40:03.673Z,8.10
2023-02-02T06:50:10.620Z,6.60
2023-02-02T07:00:19.725Z,2.90
2023-02-02T07:11:14.414Z,7.00
2023-02-02T07:20:51.961Z,6.90
2023-02-02T07:30:57.797Z,6.10
2023-02-02T07:41:04.970Z,4.20
2023-02-02T07:51:13.022Z,2.60
2023-02-02T08:01:20.478Z,6.20
2023-02-02T08:11:27.838Z,3.20
2023-02-02T08:21:35.518Z,4.60
2023-02-02T08:31:42.866Z,3.80
2023-02-02T08:41:48.596Z,2.00
2023-02-02T08:51:55.055Z,1.20
2023-02-02T09:02:00.886Z,2.20
2023-02-02T09:12:07.317Z,3.30
2023-02-02T09:22:13.231Z,3.10
2023-02-02T09:32:18.943Z,3.80
2023-02-02T09:42:40.815Z,5.40
2023-02-02T09:52:51.670Z,3.60
2023-02-02T10:03:01.141Z,3.90
2023-02-02T10:13:16.248Z,5.30
2023-02-02T10:23:27.425Z,2.40
2023-02-02T10:33:39.263Z,2.70
2023-02-02T10:44:07.409Z,1.20
2023-02-02T10:54:50.082Z,0.60
2023-02-02T11:05:18.948Z,0.80
2023-02-02T11:15:31.025Z,1.20
2023-02-02T11:25:39.698Z,1.80
2023-02-02T11:35:55.739Z,1.70
2023-02-02T11:46:04.483Z,3.20
2023-02-02T11:56:19.809Z,3.40
2023-02-02T12:06:27.926Z,2.50
2023-02-02T12:16:53.846Z,4.30
2023-02-02T12:27:11.363Z,3.90
2023-02-02T12:37:26.792Z,4.10
2023-02-02T12:47:39.789Z,2.30
2023-02-02T12:58:01.823Z,3.90
2023-02-02T13:08:11.753Z,3.10
2023-02-02T13:18:21.962Z,3.20
2023-02-02T13:28:42.878Z,2.50
2023-02-02T13:38:49.575Z,2.60
2023-02-02T13:49:04.646Z,2.80
2023-02-02T13:59:20.831Z,4.90
2023-02-02T14:09:30.818Z,3.00
2023-02-02T14:19:55.152Z,1.60
2023-02-02T14:30:21.599Z,2.90
2023-02-02T14:40:47.256Z,1.70
2023-02-02T14:50:55.890Z,2.20
2023-02-02T15:01:12.011Z,1.00
2023-02-02T15:11:29.964Z,1.00
2023-02-02T15:21:39.540Z,1.60
2023-02-02T15:31:49.780Z,2.30
2023-02-02T15:42:10.758Z,2.80
2023-02-02T15:52:22.876Z,4.90
2023-02-02T16:02:37.413Z,3.50
2023-02-02T16:12:43.390Z,5.30
2023-02-02T16:22:51.307Z,4.30
2023-02-02T16:32:57.250Z,3.90
2023-02-02T16:43:17.662Z,4.30
2023-02-02T16:53:26.020Z,4.20
2023-02-02T17:03:35.281Z,7.20
2023-02-02T17:13:42.972Z,5.50
2023-02-02T17:23:51.323Z,6.00
2023-02-02T17:33:57.048Z,5.10
2023-02-02T17:44:04.927Z,6.40
2023-02-02T17:54:14.459Z,6.10
2023-02-02T18:04:20.314Z,4.20
2023-02-02T18:14:26.520Z,7.60
2023-02-02T18:24:32.285Z,7.60
2023-02-02T18:34:38.201Z,7.00
2023-02-02T18:44:43.992Z,6.00
2023-02-02T18:54:51.033Z,7.30
2023-02-02T19:05:13.972Z,8.00
2023-02-02T19:15:19.960Z,6.50
2023-02-02T19:25:26.126Z,7.20
2023-02-02T19:35:32.144Z,8.50
2023-02-02T19:45:39.766Z,6.90
2023-02-02T19:55:45.590Z,8.40
2023-02-02T20:05:52.601Z,7.20
2023-02-02T20:16:03.909Z,6.70
2023-02-02T20:26:24.235Z,6.90
2023-02-02T20:36:41.051Z,4.20
2023-02-02T20:46:46.832Z,4.10
2023-02-02T20:56:54.317Z,4.70
2023-02-02T21:07:00.818Z,5.20
2023-02-02T21:17:14.832Z,2.70
2023-02-02T21:27:21.411Z,2.40
2023-02-02T21:37:27.766Z,6.50
2023-02-02T21:47:36.488Z,3.80
2023-02-02T21:57:43.419Z,7.70
2023-02-02T22:07:53.381Z,4.30
2023-02-02T22:17:59.287Z,6.60
2023-02-02T22:28:14.602Z,5.10
2023-02-02T22:38:22.597Z,7.60
2023-02-02T22:48:28.664Z,4.90
2023-02-02T22:58:34.523Z,3.10
2023-02-02T23:08:40.629Z,5.30
2023-02-02T23:18:46.518Z,3.30
2023-02-02T23:28:52.452Z,2.80
2023-02-02T23:38:58.624Z,5.30
2023-02-02T23:49:04.884Z,2.50
2023-02-02T23:59:10.804Z,1.40
